createdAt,value
2016-09-20T00:00:59.875Z,1013.2
2016-09-20T00:01:59.860Z,1013.22
2016-09-20T00:02:59.843Z,1013.2
2016-09-20T00:03:59.827Z,1013.22
2016-09-20T00:04:59.812Z,1013.19
2016-09-20T00:05:59.799Z,1013.2
2016-09-20T00:06:59.787Z,1013.21
2016-09-20T00:07:59.767Z,1013.21
2016-09-20T00:08:59.757Z,1013.2
2016-09-20T00:09:59.741Z,1013.18
2016-09-20T00:10:59.725Z,1013.2
2016-09-20T00:11:59.717Z,1013.21
2016-09-20T00:12:59.698Z,1013.22
2016-09-20T00:13:59.686Z,1013.23
2016-09-20T00:14:59.668Z,1013.21
2016-09-20T00:15:59.655Z,1013.23
2016-09-20T00:16:59.636Z,1013.24
2016-09-20T00:17:59.625Z,1013.2
2016-09-20T00:18:59.608Z,1013.21
2016-09-20T00:19:59.598Z,1013.21
2016-09-20T00:20:59.588Z,1013.21
2016-09-20T00:21:59.566Z,1013.16
2016-09-20T00:22:59.558Z,1013.18
2016-09-20T00:23:59.536Z,1013.17
2016-09-20T00:24:59.527Z,1013.15
2016-09-20T00:25:59.515Z,1013.14
2016-09-20T00:26:59.497Z,1013.13
2016-09-20T00:27:59.477Z,1013.13
2016-09-20T00:28:59.469Z,1013.1
2016-09-20T00:29:59.457Z,1013.12
2016-09-20T00:30:59.436Z,1013.11
2016-09-20T00:31:59.423Z,1013.1
2016-09-20T00:32:59.406Z,1013.11
2016-09-20T00:33:59.397Z,1013.11
2016-09-20T00:34:59.380Z,1013.1
2016-09-20T00:35:59.369Z,1013.08
2016-09-20T00:36:59.359Z,1013.09
2016-09-20T00:37:59.339Z,1013.09
2016-09-20T00:38:59.318Z,1013.09
2016-09-20T00:39:59.310Z,1013.06
2016-09-20T00:40:59.289Z,1013.06
2016-09-20T00:41:59.277Z,1013.06
2016-09-20T00:42:59.270Z,1013.06
2016-09-20T00:43:59.245Z,1013.09
2016-09-20T00:44:59.233Z,1013.09
2016-09-20T00:45:59.217Z,1013.04
2016-09-20T00:46:59.208Z,1013.04
2016-09-20T00:47:59.197Z,1013.06
2016-09-20T00:48:59.176Z,1013.03
2016-09-20T00:49:59.166Z,1012.99
2016-09-20T00:50:59.149Z,1013.02
2016-09-20T00:51:59.140Z,1012.99
2016-09-20T00:52:59.117Z,1013.01
2016-09-20T00:53:59.105Z,1013
2016-09-20T00:54:59.096Z,1012.95
2016-09-20T00:55:59.075Z,1012.97
2016-09-20T00:56:59.059Z,1012.96
2016-09-20T00:57:59.050Z,1012.94
2016-09-20T00:58:59.036Z,1012.97
2016-09-20T00:59:59.019Z,1012.93
2016-09-20T01:00:59.008Z,1012.9
2016-09-20T01:01:58.989Z,1012.89
2016-09-20T01:02:58.977Z,1012.89
2016-09-20T01:03:58.957Z,1012.87
2016-09-20T01:04:58.945Z,1012.86
2016-09-20T01:05:58.926Z,1012.85
2016-09-20T01:06:58.918Z,1012.82
2016-09-20T01:07:58.900Z,1012.8
2016-09-20T01:08:58.890Z,1012.8
2016-09-20T01:09:58.874Z,1012.78
2016-09-20T01:10:58.859Z,1012.75
2016-09-20T01:11:58.850Z,1012.77
2016-09-20T01:12:58.829Z,1012.79
2016-09-20T01:13:58.812Z,1012.77
2016-09-20T01:14:58.802Z,1012.74
2016-09-20T01:15:58.785Z,1012.74
2016-09-20T01:16:58.775Z,1012.74
2016-09-20T01:17:58.757Z,1012.72
2016-09-20T01:18:58.744Z,1012.74
2016-09-20T01:19:58.726Z,1012.71
2016-09-20T01:20:58.713Z,1012.74
2016-09-20T01:21:58.696Z,1012.7
2016-09-20T01:22:58.680Z,1012.69
2016-09-20T01:23:58.670Z,1012.71
2016-09-20T01:24:58.656Z,1012.67
2016-09-20T01:25:58.640Z,1012.66
2016-09-20T01:26:58.630Z,1012.67
2016-09-20T01:27:58.609Z,1012.66
2016-09-20T01:28:58.594Z,1012.64
2016-09-20T01:29:58.580Z,1012.63
2016-09-20T01:30:58.567Z,1012.64
2016-09-20T01:31:58.557Z,1012.62
2016-09-20T01:32:58.540Z,1012.66
2016-09-20T01:33:58.530Z,1012.65
2016-09-20T01:34:58.510Z,1012.64
2016-09-20T01:35:58.496Z,1012.61
2016-09-20T01:36:58.477Z,1012.63
2016-09-20T01:37:58.471Z,1012.64
2016-09-20T01:38:58.446Z,1012.63
2016-09-20T01:39:58.431Z,1012.61
2016-09-20T01:40:58.426Z,1012.61
2016-09-20T01:41:58.496Z,1012.61
2016-09-20T01:42:58.391Z,1012.66
2016-09-20T01:43:58.378Z,1012.64
2016-09-20T01:44:58.362Z,1012.6
2016-09-20T01:45:58.352Z,1012.62
2016-09-20T01:46:58.337Z,1012.65
2016-09-20T01:47:58.420Z,1012.63
2016-09-20T01:48:58.308Z,1012.61
2016-09-20T01:49:58.356Z,1012.64
2016-09-20T01:50:58.275Z,1012.65
2016-09-20T01:51:58.356Z,1012.65
2016-09-20T01:52:58.244Z,1012.64
2016-09-20T01:53:58.238Z,1012.65
2016-09-20T01:54:58.218Z,1012.62
2016-09-20T01:55:58.206Z,1012.65
2016-09-20T01:56:58.189Z,1012.62
2016-09-20T01:57:58.179Z,1012.61
2016-09-20T01:58:58.155Z,1012.66
2016-09-20T01:59:58.196Z,1012.64
2016-09-20T02:00:58.131Z,1012.63
2016-09-20T02:01:58.130Z,1012.69
2016-09-20T02:02:58.099Z,1012.64
2016-09-20T02:03:58.137Z,1012.67
2016-09-20T02:04:58.071Z,1012.66
2016-09-20T02:05:58.109Z,1012.64
2016-09-20T02:06:58.045Z,1012.62
2016-09-20T02:07:58.028Z,1012.62
2016-09-20T02:08:58.016Z,1012.62
2016-09-20T02:09:57.997Z,1012.6
2016-09-20T02:10:57.983Z,1012.6
2016-09-20T02:11:57.966Z,1012.6
2016-09-20T02:12:57.950Z,1012.6
2016-09-20T02:13:57.939Z,1012.59
2016-09-20T02:14:57.930Z,1012.59
2016-09-20T02:15:57.910Z,1012.58
2016-09-20T02:16:57.898Z,1012.58
2016-09-20T02:17:57.882Z,1012.54
2016-09-20T02:18:57.868Z,1012.54
2016-09-20T02:19:57.853Z,1012.54
2016-09-20T02:20:57.837Z,1012.59
2016-09-20T02:21:57.828Z,1012.57
2016-09-20T02:22:57.809Z,1012.6
2016-09-20T02:23:57.792Z,1012.61
2016-09-20T02:24:57.787Z,1012.58
2016-09-20T02:25:57.767Z,1012.59
2016-09-20T02:26:57.750Z,1012.61
2016-09-20T02:27:57.735Z,1012.59
2016-09-20T02:28:57.718Z,1012.61
2016-09-20T02:29:57.708Z,1012.62
2016-09-20T02:30:57.700Z,1012.58
2016-09-20T02:31:57.679Z,1012.61
2016-09-20T02:32:57.660Z,1012.59
2016-09-20T02:33:57.648Z,1012.61
2016-09-20T02:34:57.631Z,1012.62
2016-09-20T02:35:57.620Z,1012.59
2016-09-20T02:36:57.603Z,1012.59
2016-09-20T02:37:57.587Z,1012.54
2016-09-20T02:38:57.574Z,1012.56
2016-09-20T02:39:57.556Z,1012.53
2016-09-20T02:40:57.542Z,1012.56
2016-09-20T02:41:57.529Z,1012.56
2016-09-20T02:42:57.507Z,1012.55
2016-09-20T02:43:57.495Z,1012.56
2016-09-20T02:44:57.483Z,1012.56
2016-09-20T02:45:57.465Z,1012.56
2016-09-20T02:46:57.459Z,1012.58
2016-09-20T02:47:57.440Z,1012.59
2016-09-20T02:48:57.429Z,1012.58
2016-09-20T02:49:57.408Z,1012.6
2016-09-20T02:50:57.396Z,1012.6
2016-09-20T02:51:57.387Z,1012.62
2016-09-20T02:52:57.367Z,1012.59
2016-09-20T02:53:57.371Z,1012.61
2016-09-20T02:54:57.334Z,1012.64
2016-09-20T02:55:57.319Z,1012.6
2016-09-20T02:56:57.309Z,1012.59
2016-09-20T02:57:57.296Z,1012.61
2016-09-20T02:58:57.278Z,1012.6
2016-09-20T02:59:57.261Z,1012.61
2016-09-20T03:00:57.245Z,1012.63
2016-09-20T03:01:57.235Z,1012.61
2016-09-20T03:02:57.216Z,1012.61
2016-09-20T03:03:57.207Z,1012.59
2016-09-20T03:04:57.189Z,1012.6
2016-09-20T03:05:57.180Z,1012.64
2016-09-20T03:06:57.184Z,1012.62
2016-09-20T03:07:57.149Z,1012.64
2016-09-20T03:08:57.129Z,1012.66
2016-09-20T03:09:57.116Z,1012.64
2016-09-20T03:10:57.099Z,1012.65
2016-09-20T03:11:57.116Z,1012.63
2016-09-20T03:12:57.071Z,1012.67
2016-09-20T03:13:57.059Z,1012.67
2016-09-20T03:14:57.040Z,1012.67
2016-09-20T03:15:57.026Z,1012.68
2016-09-20T03:16:57.011Z,1012.68
2016-09-20T03:17:56.999Z,1012.67
2016-09-20T03:18:56.977Z,1012.7
2016-09-20T03:19:56.969Z,1012.68
2016-09-20T03:20:56.956Z,1012.66
2016-09-20T03:21:56.939Z,1012.68
2016-09-20T03:22:56.925Z,1012.68
2016-09-20T03:23:56.906Z,1012.65
2016-09-20T03:24:56.900Z,1012.63
2016-09-20T03:25:56.880Z,1012.62
2016-09-20T03:26:56.865Z,1012.62
2016-09-20T03:27:56.864Z,1012.6
2016-09-20T03:28:56.838Z,1012.59
2016-09-20T03:29:56.818Z,1012.59
2016-09-20T03:30:56.809Z,1012.54
2016-09-20T03:31:56.789Z,1012.55
2016-09-20T03:32:56.777Z,1012.56
2016-09-20T03:33:56.758Z,1012.51
2016-09-20T03:34:56.745Z,1012.55
2016-09-20T03:35:56.739Z,1012.54
2016-09-20T03:36:56.720Z,1012.56
2016-09-20T03:37:56.701Z,1012.53
2016-09-20T03:38:56.688Z,1012.56
2016-09-20T03:39:56.679Z,1012.53
2016-09-20T03:40:56.659Z,1012.52
2016-09-20T03:41:56.637Z,1012.5
2016-09-20T03:42:56.628Z,1012.56
2016-09-20T03:43:56.620Z,1012.52
2016-09-20T03:44:56.700Z,1012.54
2016-09-20T03:45:56.585Z,1012.51
2016-09-20T03:46:56.566Z,1012.53
2016-09-20T03:47:56.556Z,1012.52
2016-09-20T03:48:56.587Z,1012.51
2016-09-20T03:49:56.528Z,1012.53
2016-09-20T03:50:56.558Z,1012.52
2016-09-20T03:51:56.497Z,1012.55
2016-09-20T03:52:56.474Z,1012.53
2016-09-20T03:53:56.465Z,1012.52
2016-09-20T03:54:56.447Z,1012.51
2016-09-20T03:55:56.437Z,1012.53
2016-09-20T03:56:56.417Z,1012.52
2016-09-20T03:57:56.406Z,1012.54
2016-09-20T03:58:56.398Z,1012.49
2016-09-20T03:59:56.374Z,1012.51
2016-09-20T04:00:56.356Z,1012.52
2016-09-20T04:01:56.346Z,1012.49
2016-09-20T04:02:56.327Z,1012.48
2016-09-20T04:03:56.315Z,1012.52
2016-09-20T04:04:56.296Z,1012.5
2016-09-20T04:05:56.285Z,1012.51
2016-09-20T04:06:56.262Z,1012.5
2016-09-20T04:07:56.255Z,1012.51
2016-09-20T04:08:56.233Z,1012.51
2016-09-20T04:09:56.221Z,1012.53
2016-09-20T04:10:56.202Z,1012.51
2016-09-20T04:11:56.191Z,1012.53
2016-09-20T04:12:56.176Z,1012.53
2016-09-20T04:13:56.162Z,1012.54
2016-09-20T04:14:56.154Z,1012.54
2016-09-20T04:15:56.137Z,1012.54
2016-09-20T04:16:56.122Z,1012.54
2016-09-20T04:17:56.103Z,1012.57
2016-09-20T04:18:56.088Z,1012.55
2016-09-20T04:19:56.076Z,1012.52
2016-09-20T04:20:56.061Z,1012.56
2016-09-20T04:21:56.043Z,1012.57
2016-09-20T04:22:56.031Z,1012.55
2016-09-20T04:23:56.012Z,1012.56
2016-09-20T04:24:55.997Z,1012.58
2016-09-20T04:25:55.987Z,1012.57
2016-09-20T04:26:55.968Z,1012.61
2016-09-20T04:27:55.954Z,1012.6
2016-09-20T04:28:55.941Z,1012.58
2016-09-20T04:29:55.927Z,1012.59
2016-09-20T04:30:55.915Z,1012.59
2016-09-20T04:31:55.908Z,1012.58
2016-09-20T04:32:55.877Z,1012.59
2016-09-20T04:33:55.863Z,1012.55
2016-09-20T04:34:55.887Z,1012.52
2016-09-20T04:35:55.836Z,1012.53
2016-09-20T04:36:55.824Z,1012.53
2016-09-20T04:37:55.804Z,1012.54
2016-09-20T04:38:55.789Z,1012.51
2016-09-20T04:39:55.775Z,1012.54
2016-09-20T04:40:55.764Z,1012.54
2016-09-20T04:41:55.746Z,1012.54
2016-09-20T04:42:55.727Z,1012.54
2016-09-20T04:43:55.715Z,1012.52
2016-09-20T04:44:55.703Z,1012.55
2016-09-20T04:45:55.684Z,1012.54
2016-09-20T04:46:55.671Z,1012.55
2016-09-20T04:47:55.656Z,1012.53
2016-09-20T04:48:55.644Z,1012.56
2016-09-20T04:49:55.628Z,1012.54
2016-09-20T04:50:55.609Z,1012.54
2016-09-20T04:51:55.597Z,1012.56
2016-09-20T04:52:55.581Z,1012.57
2016-09-20T04:53:55.563Z,1012.56
2016-09-20T04:54:55.551Z,1012.58
2016-09-20T04:55:55.534Z,1012.57
2016-09-20T04:56:55.542Z,1012.58
2016-09-20T04:57:55.503Z,1012.56
2016-09-20T04:58:55.494Z,1012.58
2016-09-20T04:59:55.472Z,1012.58
2016-09-20T05:00:55.458Z,1012.58
2016-09-20T05:01:55.447Z,1012.57
2016-09-20T05:02:55.439Z,1012.61
2016-09-20T05:03:55.417Z,1012.61
2016-09-20T05:04:55.400Z,1012.62
2016-09-20T05:05:55.382Z,1012.61
2016-09-20T05:06:55.375Z,1012.66
2016-09-20T05:07:55.352Z,1012.62
2016-09-20T05:08:55.346Z,1012.62
2016-09-20T05:09:55.327Z,1012.66
2016-09-20T05:10:55.309Z,1012.66
2016-09-20T05:11:55.296Z,1012.68
2016-09-20T05:12:55.283Z,1012.67
2016-09-20T05:13:55.265Z,1012.67
2016-09-20T05:14:55.252Z,1012.68
2016-09-20T05:15:55.235Z,1012.7
2016-09-20T05:16:55.218Z,1012.69
2016-09-20T05:17:55.208Z,1012.7
2016-09-20T05:18:55.186Z,1012.72
2016-09-20T05:19:55.184Z,1012.69
2016-09-20T05:20:55.161Z,1012.72
2016-09-20T05:21:55.155Z,1012.71
2016-09-20T05:22:55.133Z,1012.72
2016-09-20T05:23:55.118Z,1012.73
2016-09-20T05:24:55.114Z,1012.69
2016-09-20T05:25:55.085Z,1012.69
2016-09-20T05:26:55.076Z,1012.7
2016-09-20T05:27:55.055Z,1012.73
2016-09-20T05:28:55.045Z,1012.69
2016-09-20T05:29:55.027Z,1012.71
2016-09-20T05:30:55.012Z,1012.73
2016-09-20T05:31:54.993Z,1012.76
2016-09-20T05:32:54.985Z,1012.76
2016-09-20T05:33:54.966Z,1012.74
2016-09-20T05:34:54.949Z,1012.75
2016-09-20T05:35:54.935Z,1012.73
2016-09-20T05:36:54.919Z,1012.72
2016-09-20T05:37:54.909Z,1012.74
2016-09-20T05:38:54.895Z,1012.74
2016-09-20T05:39:54.872Z,1012.72
2016-09-20T05:40:54.869Z,1012.73
2016-09-20T05:41:54.842Z,1012.73
2016-09-20T05:42:54.836Z,1012.73
2016-09-20T05:43:54.814Z,1012.73
2016-09-20T05:44:54.808Z,1012.71
2016-09-20T05:45:54.846Z,1012.71
2016-09-20T05:46:54.775Z,1012.74
2016-09-20T05:47:54.756Z,1012.69
2016-09-20T05:48:54.740Z,1012.74
2016-09-20T05:49:54.722Z,1012.73
2016-09-20T05:50:54.717Z,1012.74
2016-09-20T05:51:54.696Z,1012.73
2016-09-20T05:52:54.685Z,1012.73
2016-09-20T05:53:54.717Z,1012.71
2016-09-20T05:54:54.654Z,1012.74
2016-09-20T05:55:54.636Z,1012.74
2016-09-20T05:56:54.626Z,1012.74
2016-09-20T05:57:54.606Z,1012.72
2016-09-20T05:58:54.591Z,1012.76
2016-09-20T05:59:54.576Z,1012.74
2016-09-20T06:00:54.565Z,1012.76
2016-09-20T06:01:54.549Z,1012.79
2016-09-20T06:02:54.529Z,1012.76
2016-09-20T06:03:54.515Z,1012.76
2016-09-20T06:04:54.509Z,1012.78
2016-09-20T06:05:54.489Z,1012.75
2016-09-20T06:06:54.479Z,1012.74
2016-09-20T06:07:54.455Z,1012.79
2016-09-20T06:08:54.446Z,1012.73
2016-09-20T06:09:54.428Z,1012.71
2016-09-20T06:10:54.416Z,1012.73
2016-09-20T06:11:54.398Z,1012.74
2016-09-20T06:12:54.382Z,1012.77
2016-09-20T06:13:54.364Z,1012.73
2016-09-20T06:14:54.357Z,1012.75
2016-09-20T06:15:54.338Z,1012.72
2016-09-20T06:16:54.326Z,1012.75
2016-09-20T06:17:54.310Z,1012.76
2016-09-20T06:18:54.297Z,1012.75
2016-09-20T06:19:54.277Z,1012.76
2016-09-20T06:20:54.268Z,1012.74
2016-09-20T06:21:54.246Z,1012.74
2016-09-20T06:22:54.240Z,1012.76
2016-09-20T06:23:54.218Z,1012.79
2016-09-20T06:24:54.209Z,1012.77
2016-09-20T06:25:54.191Z,1012.82
2016-09-20T06:26:54.179Z,1012.78
2016-09-20T06:27:54.159Z,1012.81
2016-09-20T06:28:54.144Z,1012.79
2016-09-20T06:29:54.133Z,1012.82
2016-09-20T06:30:54.120Z,1012.83
2016-09-20T06:31:54.106Z,1012.83
2016-09-20T06:32:54.090Z,1012.83
2016-09-20T06:33:54.071Z,1012.85
2016-09-20T06:34:54.052Z,1012.86
2016-09-20T06:35:54.047Z,1012.85
2016-09-20T06:36:54.026Z,1012.84
2016-09-20T06:37:54.013Z,1012.85
2016-09-20T06:38:53.996Z,1012.85
2016-09-20T06:39:53.979Z,1012.89
2016-09-20T06:40:53.965Z,1012.89
2016-09-20T06:41:53.957Z,1012.88
2016-09-20T06:42:53.935Z,1012.87
2016-09-20T06:43:53.923Z,1012.87
2016-09-20T06:44:53.908Z,1012.86
2016-09-20T06:45:53.893Z,1012.88
2016-09-20T06:46:53.877Z,1012.86
2016-09-20T06:47:53.871Z,1012.86
2016-09-20T06:48:53.848Z,1012.86
2016-09-20T06:49:53.833Z,1012.88
2016-09-20T06:50:53.819Z,1012.88
2016-09-20T06:51:53.811Z,1012.88
2016-09-20T06:52:53.788Z,1012.91
2016-09-20T06:53:53.775Z,1012.87
2016-09-20T06:54:53.759Z,1012.87
2016-09-20T06:55:53.740Z,1012.9
2016-09-20T06:56:53.730Z,1012.92
2016-09-20T06:57:53.716Z,1012.92
2016-09-20T06:58:53.698Z,1012.91
2016-09-20T06:59:53.687Z,1012.9
2016-09-20T07:00:53.673Z,1012.94
2016-09-20T07:01:53.657Z,1012.95
2016-09-20T07:03:53.627Z,1012.95
2016-09-20T07:04:53.612Z,1012.96
2016-09-20T07:05:53.596Z,1012.96
2016-09-20T07:06:53.581Z,1012.96
2016-09-20T07:07:53.566Z,1012.99
2016-09-20T07:08:53.559Z,1012.94
2016-09-20T07:09:53.534Z,1012.97
2016-09-20T07:10:53.536Z,1013
2016-09-20T07:11:53.507Z,1013
2016-09-20T07:12:53.495Z,1013.01
2016-09-20T07:13:53.475Z,1012.99
2016-09-20T07:14:53.464Z,1013
2016-09-20T07:15:53.448Z,1013.02
2016-09-20T07:16:53.432Z,1013.02
2016-09-20T07:17:53.415Z,1013.02
2016-09-20T07:18:53.403Z,1013.05
2016-09-20T07:19:53.389Z,1013.04
2016-09-20T07:20:53.374Z,1013.06
2016-09-20T07:21:53.357Z,1013.07
2016-09-20T07:22:53.346Z,1013.07
2016-09-20T07:23:53.339Z,1013.07
2016-09-20T07:24:53.316Z,1013.06
2016-09-20T07:25:53.298Z,1013.05
2016-09-20T07:26:53.282Z,1013.12
2016-09-20T07:27:53.268Z,1013.07
2016-09-20T07:28:53.260Z,1013.09
2016-09-20T07:29:53.237Z,1013.06
2016-09-20T07:30:53.225Z,1013.09
2016-09-20T07:31:53.210Z,1013.1
2016-09-20T07:32:53.195Z,1013.09
2016-09-20T07:33:53.179Z,1013.1
2016-09-20T07:34:53.165Z,1013.12
2016-09-20T07:35:53.151Z,1013.12
2016-09-20T07:36:53.138Z,1013.13
2016-09-20T07:37:53.127Z,1013.13
2016-09-20T07:38:53.106Z,1013.14
2016-09-20T07:39:53.091Z,1013.13
2016-09-20T07:40:53.077Z,1013.15
2016-09-20T07:41:53.065Z,1013.17
2016-09-20T07:42:53.049Z,1013.16
2016-09-20T07:43:53.030Z,1013.12
2016-09-20T07:44:53.017Z,1013.14
2016-09-20T07:45:53.011Z,1013.19
2016-09-20T07:46:52.988Z,1013.14
2016-09-20T07:47:52.983Z,1013.18
2016-09-20T07:48:52.963Z,1013.18
2016-09-20T07:49:52.946Z,1013.16
2016-09-20T07:50:52.929Z,1013.19
2016-09-20T07:51:52.919Z,1013.2
2016-09-20T07:52:52.907Z,1013.21
2016-09-20T07:53:52.884Z,1013.21
2016-09-20T07:54:52.872Z,1013.21
2016-09-20T07:55:52.857Z,1013.21
2016-09-20T07:56:52.844Z,1013.24
2016-09-20T07:57:52.837Z,1013.27
2016-09-20T07:58:52.811Z,1013.26
2016-09-20T07:59:52.794Z,1013.26
2016-09-20T08:00:52.791Z,1013.28
2016-09-20T08:01:52.767Z,1013.29
2016-09-20T08:02:52.754Z,1013.3
2016-09-20T08:03:52.737Z,1013.28
2016-09-20T08:04:52.724Z,1013.29
2016-09-20T08:05:52.708Z,1013.3
2016-09-20T08:06:52.694Z,1013.31
2016-09-20T08:07:52.680Z,1013.32
2016-09-20T08:08:52.670Z,1013.31
2016-09-20T08:09:52.657Z,1013.34
2016-09-20T08:10:52.650Z,1013.34
2016-09-20T08:11:52.623Z,1013.34
2016-09-20T08:12:52.608Z,1013.35
2016-09-20T08:13:52.593Z,1013.36
2016-09-20T08:14:52.582Z,1013.36
2016-09-20T08:15:52.570Z,1013.41
2016-09-20T08:16:52.555Z,1013.35
2016-09-20T08:17:52.536Z,1013.38
2016-09-20T08:18:52.530Z,1013.39
2016-09-20T08:19:52.506Z,1013.4
2016-09-20T08:20:52.497Z,1013.38
2016-09-20T08:21:52.487Z,1013.37
2016-09-20T08:22:52.466Z,1013.38
2016-09-20T08:23:52.445Z,1013.33
2016-09-20T08:24:52.440Z,1013.39
2016-09-20T08:25:52.417Z,1013.36
2016-09-20T08:26:52.405Z,1013.4
2016-09-20T08:27:52.387Z,1013.41
2016-09-20T08:28:52.379Z,1013.43
2016-09-20T08:29:52.357Z,1013.41
2016-09-20T08:30:52.347Z,1013.41
2016-09-20T08:31:52.337Z,1013.44
2016-09-20T08:32:52.315Z,1013.41
2016-09-20T08:33:52.306Z,1013.43
2016-09-20T08:34:52.288Z,1013.42
2016-09-20T08:35:52.276Z,1013.43
2016-09-20T08:36:52.261Z,1013.44
2016-09-20T08:37:52.250Z,1013.41
2016-09-20T08:38:52.227Z,1013.42
2016-09-20T08:39:52.220Z,1013.45
2016-09-20T08:40:52.200Z,1013.45
2016-09-20T08:41:52.181Z,1013.44
2016-09-20T08:42:52.175Z,1013.46
2016-09-20T08:43:52.155Z,1013.43
2016-09-20T08:44:52.138Z,1013.48
2016-09-20T08:45:52.127Z,1013.45
2016-09-20T08:46:52.119Z,1013.46
2016-09-20T08:47:52.094Z,1013.46
2016-09-20T08:48:52.080Z,1013.49
2016-09-20T08:49:52.079Z,1013.5
2016-09-20T08:50:52.052Z,1013.48
2016-09-20T08:51:52.049Z,1013.51
2016-09-20T08:52:52.032Z,1013.51
2016-09-20T08:53:52.010Z,1013.53
2016-09-20T08:54:51.997Z,1013.52
2016-09-20T08:55:51.988Z,1013.51
2016-09-20T08:56:51.973Z,1013.5
2016-09-20T08:57:51.965Z,1013.51
2016-09-20T08:58:51.939Z,1013.51
2016-09-20T08:59:51.927Z,1013.57
2016-09-20T09:00:51.914Z,1013.57
2016-09-20T09:01:51.896Z,1013.57
2016-09-20T09:02:51.886Z,1013.57
2016-09-20T09:03:51.866Z,1013.56
2016-09-20T09:04:51.856Z,1013.59
2016-09-20T09:05:51.839Z,1013.56
2016-09-20T09:06:51.828Z,1013.56
2016-09-20T09:07:51.810Z,1013.52
2016-09-20T09:08:51.797Z,1013.54
2016-09-20T09:09:51.783Z,1013.55
2016-09-20T09:10:51.767Z,1013.53
2016-09-20T09:11:51.759Z,1013.54
2016-09-20T09:13:51.722Z,1013.49
2016-09-20T09:14:51.717Z,1013.51
2016-09-20T09:15:51.699Z,1013.53
2016-09-20T09:16:51.683Z,1013.55
2016-09-20T09:17:51.666Z,1013.58
2016-09-20T09:18:51.651Z,1013.52
2016-09-20T09:19:51.638Z,1013.49
2016-09-20T09:20:51.627Z,1013.5
2016-09-20T09:21:51.617Z,1013.53
2016-09-20T09:22:51.600Z,1013.54
2016-09-20T09:23:51.584Z,1013.53
2016-09-20T09:24:51.572Z,1013.56
2016-09-20T09:25:51.560Z,1013.58
2016-09-20T09:26:51.540Z,1013.53
2016-09-20T09:27:51.530Z,1013.57
2016-09-20T09:28:51.511Z,1013.55
2016-09-20T09:29:51.497Z,1013.56
2016-09-20T09:30:51.488Z,1013.57
2016-09-20T09:31:51.477Z,1013.53
2016-09-20T09:32:51.456Z,1013.55
2016-09-20T09:33:51.448Z,1013.55
2016-09-20T09:34:51.435Z,1013.53
2016-09-20T09:35:51.416Z,1013.52
2016-09-20T09:36:51.405Z,1013.5
2016-09-20T09:37:51.388Z,1013.53
2016-09-20T09:38:51.377Z,1013.52
2016-09-20T09:39:51.369Z,1013.52
2016-09-20T09:40:51.348Z,1013.51
2016-09-20T09:41:51.338Z,1013.48
2016-09-20T09:42:51.320Z,1013.48
2016-09-20T09:43:51.310Z,1013.45
2016-09-20T09:44:51.306Z,1013.46
2016-09-20T09:45:51.278Z,1013.49
2016-09-20T09:46:51.265Z,1013.45
2016-09-20T09:47:51.256Z,1013.46
2016-09-20T09:48:51.245Z,1013.46
2016-09-20T09:49:51.226Z,1013.46
2016-09-20T09:50:51.215Z,1013.43
2016-09-20T09:51:51.201Z,1013.41
2016-09-20T09:52:51.191Z,1013.44
2016-09-20T09:53:51.177Z,1013.41
2016-09-20T09:54:51.158Z,1013.43
2016-09-20T09:55:51.148Z,1013.44
2016-09-20T09:56:51.137Z,1013.43
2016-09-20T09:57:51.124Z,1013.44
2016-09-20T09:58:51.106Z,1013.44
2016-09-20T09:59:51.096Z,1013.45
2016-09-20T10:00:51.092Z,1013.39
2016-09-20T10:01:51.070Z,1013.39
2016-09-20T10:02:51.056Z,1013.42
2016-09-20T10:03:51.047Z,1013.41
2016-09-20T10:04:51.028Z,1013.41
2016-09-20T10:05:51.017Z,1013.43
2016-09-20T10:06:51.009Z,1013.41
2016-09-20T10:07:51.000Z,1013.36
2016-09-20T10:08:50.989Z,1013.39
2016-09-20T10:09:50.967Z,1013.37
2016-09-20T10:10:50.962Z,1013.39
2016-09-20T10:11:50.942Z,1013.37
2016-09-20T10:12:50.927Z,1013.37
2016-09-20T10:13:50.916Z,1013.36
2016-09-20T10:14:50.900Z,1013.36
2016-09-20T10:15:50.896Z,1013.37
2016-09-20T10:16:50.896Z,1013.4
2016-09-20T10:17:50.862Z,1013.36
2016-09-20T10:18:50.854Z,1013.36
2016-09-20T10:19:50.845Z,1013.33
2016-09-20T10:20:50.826Z,1013.33
2016-09-20T10:21:50.819Z,1013.33
2016-09-20T10:23:50.787Z,1013.33
2016-09-20T10:24:50.778Z,1013.31
2016-09-20T10:25:50.768Z,1013.31
2016-09-20T10:26:50.761Z,1013.36
2016-09-20T10:27:50.742Z,1013.31
2016-09-20T10:28:50.770Z,1013.32
2016-09-20T10:29:50.714Z,1013.25
2016-09-20T10:30:50.800Z,1013.32
2016-09-20T10:31:50.687Z,1013.32
2016-09-20T10:32:50.677Z,1013.35
2016-09-20T10:33:50.666Z,1013.35
2016-09-20T10:34:50.654Z,1013.3
2016-09-20T10:35:50.643Z,1013.32
2016-09-20T10:36:50.674Z,1013.31
2016-09-20T10:37:50.614Z,1013.3
2016-09-20T10:38:50.650Z,1013.37
2016-09-20T10:39:50.597Z,1013.36
2016-09-20T10:40:50.631Z,1013.34
2016-09-20T10:41:50.565Z,1013.39
2016-09-20T10:42:50.698Z,1013.35
2016-09-20T10:43:50.546Z,1013.32
2016-09-20T10:44:50.529Z,1013.39
2016-09-20T10:45:50.523Z,1013.36
2016-09-20T10:46:50.519Z,1013.35
2016-09-20T10:47:50.502Z,1013.37
2016-09-20T10:48:50.488Z,1013.4
2016-09-20T10:49:50.476Z,1013.38
2016-09-20T10:50:50.468Z,1013.41
2016-09-20T10:51:50.454Z,1013.4
2016-09-20T10:52:50.442Z,1013.43
2016-09-20T10:53:50.436Z,1013.41
2016-09-20T10:54:50.419Z,1013.42
2016-09-20T10:55:50.404Z,1013.4
2016-09-20T10:56:50.397Z,1013.42
2016-09-20T10:57:50.384Z,1013.44
2016-09-20T10:58:50.378Z,1013.44
2016-09-20T10:59:50.367Z,1013.44
2016-09-20T11:00:50.352Z,1013.45
2016-09-20T11:01:50.350Z,1013.44
2016-09-20T11:02:50.336Z,1013.42
2016-09-20T11:03:50.317Z,1013.42
2016-09-20T11:04:50.306Z,1013.41
2016-09-20T11:05:50.297Z,1013.42
2016-09-20T11:06:50.283Z,1013.42
2016-09-20T11:07:50.280Z,1013.46
2016-09-20T11:08:50.262Z,1013.43
2016-09-20T11:09:50.253Z,1013.4
2016-09-20T11:10:50.249Z,1013.39
2016-09-20T11:11:50.237Z,1013.41
2016-09-20T11:12:50.218Z,1013.4
2016-09-20T11:13:50.217Z,1013.4
2016-09-20T11:14:50.199Z,1013.39
2016-09-20T11:15:50.188Z,1013.45
2016-09-20T11:16:50.186Z,1013.37
2016-09-20T11:17:50.168Z,1013.42
2016-09-20T11:18:50.157Z,1013.38
2016-09-20T11:19:50.157Z,1013.39
2016-09-20T11:20:50.136Z,1013.37
2016-09-20T11:21:50.126Z,1013.37
2016-09-20T11:22:50.119Z,1013.37
2016-09-20T11:23:50.110Z,1013.4
2016-09-20T11:24:50.096Z,1013.43
2016-09-20T11:25:50.086Z,1013.41
2016-09-20T11:26:50.076Z,1013.43
2016-09-20T11:27:50.066Z,1013.39
2016-09-20T11:28:50.056Z,1013.37
2016-09-20T11:29:50.044Z,1013.38
2016-09-20T11:30:50.036Z,1013.37
2016-09-20T11:31:50.125Z,1013.34
2016-09-20T11:32:50.017Z,1013.34
2016-09-20T11:33:50.068Z,1013.34
2016-09-20T11:34:49.995Z,1013.32
2016-09-20T11:35:49.988Z,1013.31
2016-09-20T11:36:49.981Z,1013.31
2016-09-20T11:37:49.967Z,1013.34
2016-09-20T11:38:49.960Z,1013.36
2016-09-20T11:39:49.940Z,1013.32
2016-09-20T11:40:49.940Z,1013.33
2016-09-20T11:41:49.924Z,1013.34
2016-09-20T11:42:49.926Z,1013.33
2016-09-20T11:43:49.904Z,1013.34
2016-09-20T11:44:49.895Z,1013.32
2016-09-20T11:45:49.884Z,1013.31
2016-09-20T11:46:49.873Z,1013.3
2016-09-20T11:47:49.870Z,1013.28
2016-09-20T11:48:49.856Z,1013.27
2016-09-20T11:49:49.842Z,1013.31
2016-09-20T11:50:49.836Z,1013.27
2016-09-20T11:51:49.830Z,1013.27
2016-09-20T11:52:49.812Z,1013.26
2016-09-20T11:53:49.808Z,1013.29
2016-09-20T11:54:49.797Z,1013.27
2016-09-20T11:55:49.787Z,1013.27
2016-09-20T11:56:49.777Z,1013.25
2016-09-20T11:57:49.764Z,1013.24
2016-09-20T11:58:49.760Z,1013.21
2016-09-20T11:59:49.751Z,1013.22
2016-09-20T12:00:49.733Z,1013.21
2016-09-20T12:01:49.723Z,1013.14
2016-09-20T12:02:49.711Z,1013.17
2016-09-20T12:03:49.706Z,1013.16
2016-09-20T12:04:49.698Z,1013.18
2016-09-20T12:05:49.680Z,1013.19
2016-09-20T12:06:49.676Z,1013.18
2016-09-20T12:07:49.664Z,1013.18
2016-09-20T12:08:49.656Z,1013.19
2016-09-20T12:09:49.640Z,1013.2
2016-09-20T12:10:49.629Z,1013.2